createdAt,value
2019-06-15T00:00:37.163Z,6.20
2019-06-15T00:03:05.175Z,6.20
2019-06-15T00:05:33.091Z,6.13
2019-06-15T00:08:01.003Z,6.80
2019-06-15T00:10:28.882Z,6.40
2019-06-15T00:12:56.764Z,6.10
2019-06-15T00:15:24.675Z,5.77
2019-06-15T00:17:52.546Z,7.00
2019-06-15T00:20:20.466Z,6.20
2019-06-15T00:22:48.703Z,6.20
2019-06-15T00:25:16.707Z,6.23
2019-06-15T00:27:44.594Z,6.53
2019-06-15T00:30:12.823Z,6.63
2019-06-15T00:32:40.698Z,6.47
2019-06-15T00:35:08.815Z,6.27
2019-06-15T00:37:36.679Z,6.00
2019-06-15T00:40:05.175Z,6.47
2019-06-15T00:42:33.087Z,7.23
2019-06-15T00:45:01.027Z,7.33
2019-06-15T00:47:29.243Z,6.90
2019-06-15T00:49:57.116Z,7.00
2019-06-15T00:52:25.298Z,6.70
2019-06-15T00:54:53.252Z,7.27
2019-06-15T00:57:21.138Z,7.33
2019-06-15T00:59:49.070Z,7.80
2019-06-15T01:02:16.942Z,8.37
2019-06-15T01:04:45.220Z,7.33
2019-06-15T01:07:13.078Z,6.90
2019-06-15T01:09:40.984Z,7.47
2019-06-15T01:12:09.032Z,7.20
2019-06-15T01:14:36.954Z,7.27
2019-06-15T01:17:04.876Z,7.37
2019-06-15T01:19:32.787Z,8.80
2019-06-15T01:22:00.666Z,9.17
2019-06-15T01:24:28.581Z,9.53
2019-06-15T01:26:56.448Z,10.10
2019-06-15T01:29:25.072Z,9.20
2019-06-15T01:31:52.966Z,9.90
2019-06-15T01:34:20.851Z,8.87
2019-06-15T01:36:48.780Z,8.67
2019-06-15T01:39:16.658Z,6.90
2019-06-15T01:41:44.584Z,7.83
2019-06-15T01:44:12.450Z,7.60
2019-06-15T01:46:40.360Z,7.73
2019-06-15T01:49:08.238Z,7.80
2019-06-15T01:51:36.563Z,7.70
2019-06-15T01:54:04.816Z,7.70
2019-06-15T01:56:32.727Z,7.33
2019-06-15T01:59:00.586Z,6.70
2019-06-15T02:01:28.505Z,6.53
2019-06-15T02:03:56.433Z,7.50
2019-06-15T02:06:24.379Z,7.77
2019-06-15T02:08:52.576Z,7.67
2019-06-15T02:11:20.483Z,6.97
2019-06-15T02:13:48.363Z,7.07
2019-06-15T02:16:16.283Z,7.27
2019-06-15T02:18:44.257Z,7.43
2019-06-15T02:21:12.171Z,7.70
2019-06-15T02:23:40.047Z,7.70
2019-06-15T02:26:08.402Z,7.87
2019-06-15T02:28:36.270Z,7.20
2019-06-15T02:31:04.295Z,7.70
2019-06-15T02:33:32.159Z,7.27
2019-06-15T02:36:00.076Z,8.07
2019-06-15T02:38:27.967Z,8.43
2019-06-15T02:40:55.874Z,8.40
2019-06-15T02:43:23.790Z,8.13
2019-06-15T02:45:51.708Z,8.80
2019-06-15T02:48:20.112Z,8.20
2019-06-15T02:50:48.147Z,7.90
2019-06-15T02:53:16.058Z,7.77
2019-06-15T02:55:50.578Z,8.10
2019-06-15T02:58:14.059Z,8.97
2019-06-15T03:01:00.463Z,7.57
2019-06-15T03:03:28.347Z,7.40
2019-06-15T03:05:56.468Z,7.87
2019-06-15T03:08:24.571Z,9.93
2019-06-15T03:10:52.665Z,10.47
2019-06-15T03:13:20.624Z,8.97
2019-06-15T03:15:48.698Z,7.83
2019-06-15T03:18:16.648Z,7.53
2019-06-15T03:20:44.707Z,8.00
2019-06-15T03:23:12.631Z,8.03
2019-06-15T03:25:40.532Z,8.27
2019-06-15T03:28:08.770Z,8.03
2019-06-15T03:30:36.658Z,7.63
2019-06-15T03:33:05.390Z,7.23
2019-06-15T03:35:33.357Z,6.70
2019-06-15T03:38:01.333Z,7.40
2019-06-15T03:40:29.273Z,7.20
2019-06-15T03:42:57.165Z,7.27
2019-06-15T03:45:25.440Z,6.80
2019-06-15T03:47:53.343Z,6.67
2019-06-15T03:50:21.431Z,6.73
2019-06-15T03:52:49.352Z,6.57
2019-06-15T03:55:17.435Z,5.13
2019-06-15T03:57:45.451Z,5.00
2019-06-15T04:00:46.810Z,5.17
2019-06-15T04:03:15.014Z,5.37
2019-06-15T04:05:43.291Z,5.03
2019-06-15T04:08:11.360Z,5.70
2019-06-15T04:10:39.282Z,5.70
2019-06-15T04:13:07.211Z,5.27
2019-06-15T04:15:35.089Z,5.97
2019-06-15T04:18:03.094Z,6.17
2019-06-15T04:20:30.990Z,7.23
2019-06-15T04:22:58.924Z,7.07
2019-06-15T04:25:27.239Z,7.43
2019-06-15T04:27:55.151Z,8.33
2019-06-15T04:30:23.355Z,7.53
2019-06-15T04:32:51.271Z,7.77
2019-06-15T04:35:19.149Z,7.50
2019-06-15T04:37:47.075Z,7.20
2019-06-15T04:40:15.158Z,7.57
2019-06-15T04:42:43.480Z,7.80
2019-06-15T04:45:11.702Z,6.73
2019-06-15T04:47:39.595Z,6.83
2019-06-15T04:50:07.942Z,5.77
2019-06-15T04:52:35.822Z,5.67
2019-06-15T04:55:04.294Z,3.67
2019-06-15T04:57:32.133Z,3.40
2019-06-15T05:00:00.092Z,3.70
2019-06-15T05:02:27.906Z,2.63
2019-06-15T05:04:55.835Z,2.70
2019-06-15T05:07:23.739Z,3.07
2019-06-15T05:09:51.672Z,2.77
2019-06-15T05:12:19.578Z,3.00
2019-06-15T05:14:47.479Z,2.90
2019-06-15T05:17:15.360Z,3.70
2019-06-15T05:19:43.278Z,3.97
2019-06-15T05:22:11.159Z,3.90
2019-06-15T05:24:39.070Z,3.90
2019-06-15T05:27:06.966Z,4.27
2019-06-15T05:29:34.867Z,4.00
2019-06-15T05:32:02.880Z,3.70
2019-06-15T05:34:31.193Z,4.07
2019-06-15T05:36:59.078Z,4.60
2019-06-15T05:39:27.000Z,3.90
2019-06-15T05:41:54.887Z,3.83
2019-06-15T05:44:22.814Z,3.87
2019-06-15T05:46:50.697Z,3.73
2019-06-15T05:49:18.660Z,4.40
2019-06-15T05:51:46.545Z,5.80
2019-06-15T05:54:14.450Z,6.80
2019-06-15T05:56:42.323Z,9.10
2019-06-15T05:59:10.246Z,10.53
2019-06-15T06:01:38.115Z,13.03
2019-06-15T06:04:05.983Z,12.27
2019-06-15T06:06:33.887Z,11.77
2019-06-15T06:09:01.812Z,12.87
2019-06-15T06:11:29.712Z,14.43
2019-06-15T06:13:57.585Z,14.53
2019-06-15T06:16:25.479Z,14.57
2019-06-15T06:18:53.347Z,17.60
2019-06-15T06:21:21.250Z,16.33
2019-06-15T06:23:49.127Z,16.27
2019-06-15T06:26:17.025Z,16.87
2019-06-15T06:28:56.756Z,16.90
2019-06-15T06:31:14.698Z,15.63
2019-06-15T06:33:44.010Z,16.07
2019-06-15T06:36:15.998Z,17.10
2019-06-15T06:38:46.337Z,16.60
2019-06-15T06:41:14.245Z,15.93
2019-06-15T06:43:42.160Z,16.23
2019-06-15T06:46:10.059Z,17.87
2019-06-15T06:48:38.267Z,17.17
2019-06-15T06:51:06.191Z,16.70
2019-06-15T06:53:34.075Z,17.77
2019-06-15T06:56:01.967Z,16.57
2019-06-15T06:58:29.847Z,17.63
2019-06-15T07:00:58.278Z,15.63
2019-06-15T07:03:26.153Z,14.17
2019-06-15T07:05:54.063Z,15.07
2019-06-15T07:08:21.994Z,15.63
2019-06-15T07:10:49.903Z,15.00
2019-06-15T07:13:17.754Z,15.83
2019-06-15T07:15:45.662Z,15.30
2019-06-15T07:18:13.523Z,16.53
2019-06-15T07:20:41.424Z,17.30
2019-06-15T07:23:09.298Z,15.47
2019-06-15T07:25:37.195Z,14.37
2019-06-15T07:28:08.243Z,14.17
2019-06-15T07:30:34.887Z,13.03
2019-06-15T07:33:02.753Z,13.30
2019-06-15T07:35:30.626Z,11.13
2019-06-15T07:37:58.560Z,11.13
2019-06-15T07:40:29.786Z,12.10
2019-06-15T07:43:01.490Z,11.00
2019-06-15T07:45:37.970Z,11.63
2019-06-15T07:48:07.783Z,12.20
2019-06-15T07:50:36.423Z,13.30
2019-06-15T07:53:08.906Z,10.23
2019-06-15T07:55:36.761Z,10.40
2019-06-15T07:58:24.691Z,8.93
2019-06-15T08:00:49.970Z,9.87
2019-06-15T08:03:20.757Z,5.77
2019-06-15T08:05:50.188Z,11.63
2019-06-15T08:08:20.244Z,5.30
2019-06-15T08:10:52.577Z,7.30
2019-06-15T08:13:24.583Z,4.07
2019-06-15T08:15:59.360Z,4.40
2019-06-15T08:18:29.734Z,4.60
2019-06-15T08:21:01.667Z,4.60
2019-06-15T08:23:41.116Z,5.00
2019-06-15T08:26:10.522Z,4.77
2019-06-15T08:28:40.577Z,6.87
2019-06-15T08:31:08.221Z,4.67
2019-06-15T08:33:36.210Z,5.13
2019-06-15T08:36:07.879Z,4.77
2019-06-15T08:38:37.348Z,6.00
2019-06-15T08:41:07.093Z,4.00
2019-06-15T08:43:36.267Z,5.53
2019-06-15T08:46:06.838Z,5.87
2019-06-15T08:48:38.203Z,4.47
2019-06-15T08:51:08.416Z,4.43
2019-06-15T08:53:40.999Z,5.33
2019-06-15T08:56:11.660Z,5.47
2019-06-15T08:58:54.837Z,5.47
2019-06-15T09:01:12.159Z,5.47
2019-06-15T09:03:42.642Z,5.10
2019-06-15T09:06:13.469Z,6.87
2019-06-15T09:08:44.812Z,6.20
2019-06-15T09:11:14.646Z,4.63
2019-06-15T09:13:45.163Z,4.50
2019-06-15T09:16:15.723Z,5.57
2019-06-15T09:18:45.323Z,5.30
2019-06-15T09:21:14.374Z,5.27
2019-06-15T09:23:44.606Z,4.60
2019-06-15T09:26:13.587Z,4.37
2019-06-15T09:28:42.673Z,5.17
2019-06-15T09:31:11.732Z,6.50
2019-06-15T09:33:41.021Z,5.40
2019-06-15T09:36:09.588Z,4.83
2019-06-15T09:38:38.859Z,4.53
2019-06-15T09:41:08.152Z,5.07
2019-06-15T09:43:40.367Z,5.57
2019-06-15T09:46:10.130Z,5.47
2019-06-15T09:48:40.144Z,6.77
2019-06-15T09:51:09.950Z,7.80
2019-06-15T09:53:39.650Z,6.77
2019-06-15T09:56:07.953Z,7.03
2019-06-15T09:58:35.864Z,6.30
2019-06-15T10:01:03.829Z,6.27
2019-06-15T10:03:31.766Z,6.37
2019-06-15T10:05:59.621Z,6.57
2019-06-15T10:08:27.577Z,6.13
2019-06-15T10:10:55.913Z,6.13
2019-06-15T10:13:23.770Z,7.37
2019-06-15T10:15:51.689Z,7.40
2019-06-15T10:18:19.571Z,7.20
2019-06-15T10:20:47.511Z,7.07
2019-06-15T10:23:15.454Z,6.27
2019-06-15T10:25:43.454Z,6.33
2019-06-15T10:28:11.322Z,6.17
2019-06-15T10:30:39.227Z,5.80
2019-06-15T10:33:07.628Z,6.07
2019-06-15T10:35:35.540Z,6.20
2019-06-15T10:38:03.407Z,4.53
2019-06-15T10:40:31.406Z,4.63
2019-06-15T10:42:59.279Z,5.10
2019-06-15T10:45:27.279Z,4.67
2019-06-15T10:47:55.202Z,5.83
2019-06-15T10:50:23.187Z,6.57
2019-06-15T10:52:51.077Z,6.67
2019-06-15T10:55:19.107Z,6.33
2019-06-15T10:57:47.022Z,6.73
2019-06-15T11:00:16.132Z,6.40
2019-06-15T11:02:44.005Z,6.37
2019-06-15T11:05:16.534Z,7.40
2019-06-15T11:07:44.448Z,7.23
2019-06-15T11:10:13.645Z,6.50
2019-06-15T11:12:46.722Z,6.90
2019-06-15T11:15:23.464Z,6.83
2019-06-15T11:17:52.018Z,6.30
2019-06-15T11:20:19.971Z,7.13
2019-06-15T11:22:48.556Z,5.97
2019-06-15T11:25:16.562Z,6.67
2019-06-15T11:27:44.426Z,5.83
2019-06-15T11:30:14.088Z,5.23
2019-06-15T11:32:42.174Z,5.23
2019-06-15T11:35:10.281Z,6.63
2019-06-15T11:37:38.143Z,5.37
2019-06-15T11:40:06.294Z,5.40
2019-06-15T11:42:34.204Z,5.23
2019-06-15T11:45:02.082Z,6.10
2019-06-15T11:47:29.981Z,5.07
2019-06-15T11:49:58.615Z,5.67
2019-06-15T11:52:26.528Z,5.23
2019-06-15T11:54:54.386Z,5.50
2019-06-15T11:57:22.315Z,6.20
2019-06-15T11:59:50.184Z,6.13
2019-06-15T12:02:18.198Z,5.33
2019-06-15T12:04:58.046Z,5.43
2019-06-15T12:07:16.356Z,5.87
2019-06-15T12:09:44.268Z,6.20
2019-06-15T12:12:12.180Z,6.20
2019-06-15T12:14:40.111Z,5.07
2019-06-15T12:17:08.065Z,4.97
2019-06-15T12:19:36.378Z,3.67
2019-06-15T12:22:04.278Z,3.70
2019-06-15T12:24:32.139Z,4.10
2019-06-15T12:27:00.044Z,4.00
2019-06-15T12:29:28.365Z,3.93
2019-06-15T12:31:56.284Z,3.60
2019-06-15T12:34:24.146Z,3.67
2019-06-15T12:36:52.416Z,3.67
2019-06-15T12:39:20.284Z,3.40
2019-06-15T12:41:48.198Z,3.40
2019-06-15T12:44:16.061Z,4.30
2019-06-15T12:46:43.994Z,4.33
2019-06-15T12:49:11.851Z,4.10
2019-06-15T12:51:40.861Z,3.87
2019-06-15T12:54:08.928Z,3.37
2019-06-15T12:56:36.840Z,3.83
2019-06-15T12:59:04.707Z,3.20
2019-06-15T13:01:32.575Z,3.27
2019-06-15T13:04:00.955Z,3.30
2019-06-15T13:06:29.275Z,2.33
2019-06-15T13:08:57.218Z,3.30
2019-06-15T13:11:25.126Z,2.73
2019-06-15T13:13:53.039Z,2.67
2019-06-15T13:16:20.956Z,3.00
2019-06-15T13:18:48.846Z,3.00
2019-06-15T13:21:16.724Z,2.73
2019-06-15T13:23:44.630Z,3.20
2019-06-15T13:26:12.514Z,2.37
2019-06-15T13:28:40.492Z,2.87
2019-06-15T13:31:17.731Z,3.17
2019-06-15T13:33:38.098Z,2.83
2019-06-15T13:36:05.970Z,2.40
2019-06-15T13:38:33.879Z,2.33
2019-06-15T13:41:01.764Z,3.13
2019-06-15T13:43:29.655Z,2.43
2019-06-15T13:45:57.519Z,3.00
2019-06-15T13:48:25.435Z,2.93
2019-06-15T13:50:53.290Z,2.60
2019-06-15T13:53:21.186Z,2.43
2019-06-15T13:55:49.038Z,2.70
2019-06-15T13:58:16.943Z,2.63
2019-06-15T14:00:44.807Z,2.43
2019-06-15T14:03:13.142Z,2.80
2019-06-15T14:05:41.035Z,2.70
2019-06-15T14:08:08.979Z,2.30
2019-06-15T14:10:36.976Z,2.33
2019-06-15T14:13:04.887Z,2.47
2019-06-15T14:15:34.686Z,2.33
2019-06-15T14:18:02.611Z,2.50
2019-06-15T14:20:30.643Z,2.10
2019-06-15T14:22:58.506Z,2.37
2019-06-15T14:25:26.798Z,2.20
2019-06-15T14:27:54.658Z,1.97
2019-06-15T14:30:22.686Z,1.77
2019-06-15T14:32:50.965Z,2.17
2019-06-15T14:35:18.969Z,2.30
2019-06-15T14:37:47.028Z,1.87
2019-06-15T14:40:17.239Z,1.77
2019-06-15T14:42:45.487Z,2.10
2019-06-15T14:45:13.793Z,2.27
2019-06-15T14:47:41.651Z,2.17
2019-06-15T14:50:10.048Z,1.70
2019-06-15T14:52:37.927Z,1.73
2019-06-15T14:55:07.258Z,1.70
2019-06-15T14:57:36.179Z,2.20
2019-06-15T15:00:08.867Z,1.90
2019-06-15T15:02:37.122Z,1.70
2019-06-15T15:05:06.879Z,2.20
2019-06-15T15:07:37.080Z,1.87
2019-06-15T15:10:26.708Z,1.87
2019-06-15T15:12:56.701Z,1.80
2019-06-15T15:15:24.774Z,2.00
2019-06-15T15:17:53.480Z,1.57
2019-06-15T15:20:21.501Z,1.60
2019-06-15T15:22:49.399Z,2.33
2019-06-15T15:25:18.258Z,1.87
2019-06-15T15:27:47.033Z,1.13
2019-06-15T15:30:27.029Z,1.07
2019-06-15T15:32:57.113Z,1.47
2019-06-15T15:35:26.900Z,1.33
2019-06-15T15:37:56.725Z,0.93
2019-06-15T15:40:27.379Z,1.20
2019-06-15T15:42:56.256Z,1.40
2019-06-15T15:45:26.245Z,1.20
2019-06-15T15:47:54.709Z,1.40
2019-06-15T15:50:26.081Z,1.30
2019-06-15T15:52:56.589Z,1.50
2019-06-15T15:55:26.540Z,1.43
2019-06-15T15:57:56.242Z,1.27
2019-06-15T16:00:32.943Z,1.43
2019-06-15T16:03:00.938Z,1.40
2019-06-15T16:05:30.128Z,1.57
2019-06-15T16:07:59.521Z,1.63
2019-06-15T16:10:27.491Z,2.10
2019-06-15T16:12:56.825Z,1.27
2019-06-15T16:15:26.608Z,1.40
2019-06-15T16:17:56.234Z,2.17
2019-06-15T16:20:26.181Z,2.43
2019-06-15T16:22:56.225Z,1.37
2019-06-15T16:25:23.636Z,2.10
2019-06-15T16:27:51.599Z,1.87
2019-06-15T16:30:56.136Z,2.23
2019-06-15T16:33:03.648Z,1.47
2019-06-15T16:35:28.154Z,1.20
2019-06-15T16:37:56.068Z,1.63
2019-06-15T16:40:30.751Z,1.47
2019-06-15T16:42:58.884Z,1.63
2019-06-15T16:48:16.772Z,1.90
2019-06-15T16:50:46.995Z,2.03
2019-06-15T16:53:16.863Z,2.17
2019-06-15T16:55:47.151Z,2.57
2019-06-15T16:58:16.205Z,1.77
2019-06-15T17:00:47.408Z,1.83
2019-06-15T17:03:21.994Z,1.27
2019-06-15T17:05:46.396Z,1.13
2019-06-15T17:08:13.567Z,1.27
2019-06-15T17:10:41.975Z,1.40
2019-06-15T17:13:10.079Z,1.23
2019-06-15T17:15:40.967Z,1.40
2019-06-15T17:18:09.441Z,1.00
2019-06-15T17:20:56.703Z,1.10
2019-06-15T17:23:27.399Z,1.00
2019-06-15T17:25:54.423Z,1.30
2019-06-15T17:28:22.374Z,0.93
2019-06-15T17:30:50.372Z,1.00
2019-06-15T17:33:30.517Z,1.30
2019-06-15T17:35:58.886Z,0.90
2019-06-15T17:38:18.091Z,1.07
2019-06-15T17:40:46.259Z,1.07
2019-06-15T17:43:16.157Z,1.20
2019-06-15T17:45:46.758Z,1.03
2019-06-15T17:48:17.104Z,1.03
2019-06-15T17:50:47.473Z,1.07
2019-06-15T17:53:16.995Z,0.90
2019-06-15T17:55:46.712Z,1.00
2019-06-15T17:58:17.081Z,0.90
2019-06-15T18:00:47.084Z,0.83
2019-06-15T18:03:16.941Z,0.97
2019-06-15T18:05:48.468Z,0.97
2019-06-15T18:08:17.134Z,0.90
2019-06-15T18:10:47.671Z,1.10
2019-06-15T18:13:16.937Z,1.10
2019-06-15T18:15:48.028Z,1.10
2019-06-15T18:18:16.936Z,1.33
2019-06-15T18:20:45.559Z,1.30
2019-06-15T18:23:20.063Z,1.10
2019-06-15T18:25:48.619Z,1.27
2019-06-15T18:28:17.635Z,1.60
2019-06-15T18:30:46.666Z,1.53
2019-06-15T18:33:16.283Z,1.60
2019-06-15T18:35:47.061Z,1.50
2019-06-15T18:38:14.651Z,1.00
2019-06-15T18:40:42.630Z,1.10
2019-06-15T18:43:10.756Z,1.87
2019-06-15T18:45:38.699Z,2.23
2019-06-15T18:48:06.666Z,0.80
2019-06-15T18:50:38.911Z,1.40
2019-06-15T18:53:07.368Z,2.00
2019-06-15T18:55:36.396Z,2.47
2019-06-15T18:58:04.750Z,5.57
2019-06-15T19:00:32.921Z,3.93
2019-06-15T19:03:01.070Z,20.97
2019-06-15T19:05:44.120Z,9.10
2019-06-15T19:08:18.330Z,9.30
2019-06-15T19:10:47.682Z,6.17
2019-06-15T19:13:16.193Z,5.07
2019-06-15T19:15:46.397Z,22.80
2019-06-15T19:18:17.699Z,19.57
2019-06-15T19:20:46.795Z,11.20
2019-06-15T19:23:15.072Z,17.53
2019-06-15T19:25:42.971Z,12.63
2019-06-15T19:28:10.975Z,5.43
2019-06-15T19:30:39.144Z,19.07
2019-06-15T19:33:07.254Z,18.40
2019-06-15T19:35:36.320Z,6.00
2019-06-15T19:38:06.355Z,4.27
2019-06-15T19:40:37.543Z,9.57
2019-06-15T19:43:06.649Z,2.47
2019-06-15T19:45:36.798Z,1.80
2019-06-15T19:48:06.692Z,0.90
2019-06-15T19:50:36.298Z,1.00
2019-06-15T19:53:06.965Z,0.97
2019-06-15T19:55:36.308Z,1.20
2019-06-15T19:58:06.899Z,1.00
2019-06-15T20:00:36.409Z,0.67
2019-06-15T20:03:06.956Z,0.90
2019-06-15T20:05:37.273Z,1.10
2019-06-15T20:08:29.933Z,0.83
2019-06-15T20:10:58.298Z,0.90
2019-06-15T20:13:26.314Z,1.30
2019-06-15T20:15:56.996Z,0.90
2019-06-15T20:18:26.709Z,0.90
2019-06-15T20:20:56.355Z,0.80
2019-06-15T20:23:26.461Z,0.77
2019-06-15T20:25:55.848Z,1.20
2019-06-15T20:28:23.836Z,0.80
2019-06-15T20:30:51.742Z,0.80
2019-06-15T20:33:19.614Z,0.70
2019-06-15T20:35:47.813Z,1.00
2019-06-15T20:38:16.190Z,0.70
2019-06-15T20:40:47.060Z,0.70
2019-06-15T20:43:16.843Z,0.90
2019-06-15T20:45:46.723Z,0.80
2019-06-15T20:48:14.291Z,0.87
2019-06-15T20:50:42.276Z,0.90
2019-06-15T20:53:10.243Z,0.90
2019-06-15T20:55:38.164Z,1.20
2019-06-15T20:58:06.635Z,0.80
2019-06-15T21:00:36.788Z,0.70
2019-06-15T21:03:06.562Z,0.90
2019-06-15T21:05:38.963Z,1.00
2019-06-15T21:08:06.651Z,1.03
2019-06-15T21:10:37.029Z,0.87
2019-06-15T21:13:03.876Z,0.93
2019-06-15T21:15:36.888Z,1.00
2019-06-15T21:18:06.804Z,0.90
2019-06-15T21:20:40.598Z,0.80
2019-06-15T21:23:16.228Z,0.60
2019-06-15T21:25:46.630Z,0.80
2019-06-15T21:28:17.661Z,0.60
2019-06-15T21:30:47.087Z,0.70
2019-06-15T21:33:15.975Z,0.60
2019-06-15T21:35:52.318Z,0.70
2019-06-15T21:38:20.161Z,0.50
2019-06-15T21:41:07.814Z,0.60
2019-06-15T21:43:42.823Z,0.60
2019-06-15T21:46:13.840Z,0.60
2019-06-15T21:48:48.295Z,0.67
2019-06-15T21:51:27.049Z,0.60
2019-06-15T21:53:58.114Z,0.80
2019-06-15T21:56:36.948Z,0.70
2019-06-15T21:59:07.621Z,0.60
2019-06-15T22:01:37.601Z,0.70
2019-06-15T22:04:08.008Z,0.53
2019-06-15T22:06:40.294Z,0.70
2019-06-15T22:09:20.834Z,0.83
2019-06-15T22:11:49.962Z,0.90
2019-06-15T22:14:26.525Z,0.73
2019-06-15T22:17:08.861Z,0.63
2019-06-15T22:19:40.072Z,0.63
2019-06-15T22:22:10.590Z,0.87
2019-06-15T22:24:39.412Z,0.80
2019-06-15T22:27:10.694Z,1.03
2019-06-15T22:29:42.995Z,0.60
2019-06-15T22:32:12.853Z,0.70
2019-06-15T22:34:43.573Z,0.80
2019-06-15T22:37:17.195Z,0.60
2019-06-15T22:39:47.035Z,0.60
2019-06-15T22:42:19.749Z,0.80
2019-06-15T22:44:51.931Z,0.80
2019-06-15T22:47:22.944Z,0.80
2019-06-15T22:50:19.791Z,0.70
2019-06-15T22:52:58.004Z,0.67
2019-06-15T22:55:36.744Z,0.70
2019-06-15T22:58:08.397Z,0.90
2019-06-15T23:00:38.403Z,0.77
2019-06-15T23:03:10.452Z,0.90
2019-06-15T23:05:40.820Z,0.87
2019-06-15T23:08:11.159Z,0.83
2019-06-15T23:10:46.876Z,0.80
2019-06-15T23:13:16.057Z,0.70
2019-06-15T23:15:46.727Z,0.80
2019-06-15T23:18:14.082Z,0.80
2019-06-15T23:20:41.970Z,1.00
2019-06-15T23:23:09.864Z,0.80
2019-06-15T23:25:37.797Z,0.60
2019-06-15T23:28:07.089Z,0.90
2019-06-15T23:30:36.544Z,0.80
2019-06-15T23:33:06.537Z,1.00
2019-06-15T23:35:40.000Z,0.70
2019-06-15T23:38:08.017Z,0.80
2019-06-15T23:40:36.103Z,1.20
2019-06-15T23:43:06.113Z,0.90
2019-06-15T23:45:35.959Z,0.70
2019-06-15T23:48:03.423Z,0.90
2019-06-15T23:50:31.438Z,0.90
2019-06-15T23:52:59.355Z,0.80
2019-06-15T23:55:27.245Z,0.80
2019-06-15T23:57:57.021Z,0.93
